Time;durP1;ratioP1;P1;durP2;ratioP2;P2;SDS_P1;SDS_P2;PMS_P1;PMS_P2;Temp;Humidity;BMP_temperature;BMP_pressure;BME280_temperature;BME280_humidity;BME280_pressure;Samples;Min_cycle;Max_cycle;Signal;HPM_P1;HPM_P2
2021/08/11 00:02:20;;;;;;;4.83;4.27;;;18.70;99.90;;;;;;4953207;28;20573;-53
2021/08/11 00:04:46;;;;;;;4.60;4.20;;;18.80;99.90;;;;;;4945986;29;20584;-54
2021/08/11 00:07:11;;;;;;;6.20;4.27;;;18.70;99.90;;;;;;4954844;28;20434;-53
2021/08/11 00:09:37;;;;;;;4.73;4.20;;;18.70;99.90;;;;;;4953856;28;20236;-52
2021/08/11 00:12:04;;;;;;;5.13;4.10;;;18.70;99.90;;;;;;4954500;28;20220;-53
2021/08/11 00:14:29;;;;;;;4.95;4.43;;;18.60;99.90;;;;;;4954680;28;20189;-53
2021/08/11 00:16:55;;;;;;;4.43;4.03;;;18.60;99.90;;;;;;4953605;28;20204;-52
2021/08/11 00:19:21;;;;;;;4.47;4.00;;;18.60;99.90;;;;;;4952956;28;20251;-53
2021/08/11 00:21:47;;;;;;;5.63;4.40;;;18.60;99.90;;;;;;4954689;28;20185;-53
2021/08/11 00:24:12;;;;;;;4.10;3.80;;;18.70;99.90;;;;;;4957704;28;20213;-52
2021/08/11 00:26:38;;;;;;;5.17;3.57;;;18.70;99.90;;;;;;4953950;28;20236;-53
2021/08/11 00:29:04;;;;;;;4.17;3.77;;;18.40;99.90;;;;;;4954333;28;20564;-53
2021/08/11 00:31:30;;;;;;;8.27;4.03;;;18.50;99.90;;;;;;4954203;28;20184;-53
2021/08/11 00:33:56;;;;;;;4.85;4.32;;;18.50;99.90;;;;;;4953776;28;20658;-53
2021/08/11 00:36:21;;;;;;;5.27;4.77;;;18.50;99.90;;;;;;4953516;28;20216;-53
2021/08/11 00:38:47;;;;;;;5.80;4.20;;;18.40;99.90;;;;;;4953731;28;20188;-53
2021/08/11 00:41:15;;;;;;;4.50;4.10;;;18.50;99.90;;;;;;4951621;28;20708;-54
2021/08/11 00:43:41;;;;;;;5.32;4.82;;;18.50;99.90;;;;;;4954463;28;20220;-53
2021/08/11 00:46:10;;;;;;;4.50;4.10;;;18.50;99.90;;;;;;4953929;28;20205;-53
2021/08/11 00:48:37;;;;;;;8.65;4.00;;;18.50;99.90;;;;;;4953751;28;20273;-53
2021/08/11 00:51:05;;;;;;;4.20;3.80;;;18.40;99.90;;;;;;4953800;28;20195;-54
2021/08/11 00:53:32;;;;;;;4.63;4.22;;;18.40;99.90;;;;;;4953072;28;20200;-53
2021/08/11 00:56:00;;;;;;;4.88;4.10;;;18.40;99.90;;;;;;4952850;28;20209;-53
2021/08/11 00:58:27;;;;;;;4.32;3.90;;;18.30;99.90;;;;;;4952631;28;20211;-52
2021/08/11 01:00:54;;;;;;;4.43;4.03;;;18.40;99.90;;;;;;4953332;28;20189;-53
2021/08/11 01:03:22;;;;;;;6.97;4.15;;;18.30;99.90;;;;;;4953777;28;20200;-53
2021/08/11 01:05:50;;;;;;;5.07;4.60;;;18.40;99.90;;;;;;4949521;29;20340;-52
2021/08/11 01:08:17;;;;;;;4.50;4.07;;;18.40;99.90;;;;;;4953429;28;20702;-52
2021/08/11 01:10:46;;;;;;;5.88;4.57;;;18.30;99.90;;;;;;4949398;28;20674;-52
2021/08/11 01:13:13;;;;;;;4.25;3.85;;;18.30;99.90;;;;;;4953657;28;20602;-53
2021/08/11 01:15:39;;;;;;;4.70;3.92;;;18.30;99.90;;;;;;4952753;28;20201;-53
2021/08/11 01:18:05;;;;;;;4.90;4.23;;;18.40;99.90;;;;;;4951238;28;20185;-52
2021/08/11 01:20:37;;;;;;;4.57;4.18;;;18.40;99.90;;;;;;4952609;28;20529;-53
2021/08/11 01:23:10;;;;;;;4.53;4.13;;;18.40;99.90;;;;;;4953423;28;20275;-53
2021/08/11 01:25:43;;;;;;;4.15;3.85;;;18.40;99.90;;;;;;4952688;29;20216;-52
2021/08/11 01:28:46;;;;;;;5.07;4.57;;;18.20;99.90;;;;;;4953420;28;20287;-52
2021/08/11 01:31:14;;;;;;;4.32;3.92;;;18.40;99.90;;;;;;4952610;28;20188;-53
2021/08/11 01:33:49;;;;;;;7.47;4.07;;;18.40;99.90;;;;;;4952697;28;20415;-53
2021/08/11 01:36:15;;;;;;;4.78;4.28;;;18.40;99.90;;;;;;4952775;28;20205;-52
2021/08/11 01:38:49;;;;;;;6.53;4.13;;;18.40;99.90;;;;;;4952388;28;20316;-53
2021/08/11 01:41:15;;;;;;;4.22;3.90;;;18.40;99.90;;;;;;4951454;28;20207;-52
2021/08/11 01:43:45;;;;;;;5.00;4.50;;;18.40;99.90;;;;;;4951872;29;20201;-53
2021/08/11 01:46:14;;;;;;;4.00;3.70;;;18.50;99.90;;;;;;4952866;28;20592;-52
2021/08/11 01:48:41;;;;;;;4.38;3.97;;;18.50;99.90;;;;;;4952555;28;20243;-54
2021/08/11 01:51:08;;;;;;;5.50;4.00;;;18.40;99.90;;;;;;4952663;28;20196;-53
2021/08/11 01:53:34;;;;;;;4.15;3.63;;;18.40;99.90;;;;;;4952789;28;20416;-52
2021/08/11 01:56:00;;;;;;;4.20;3.80;;;18.40;99.90;;;;;;4956389;28;20220;-53
2021/08/11 01:58:29;;;;;;;4.70;4.20;;;18.40;99.90;;;;;;4951693;28;20181;-53
2021/08/11 02:01:05;;;;;;;9.98;7.20;;;18.50;99.90;;;;;;4952445;28;20263;-53
2021/08/11 02:03:32;;;;;;;4.53;4.13;;;18.40;99.90;;;;;;4952683;28;20192;-53
2021/08/11 02:05:58;;;;;;;5.13;4.50;;;18.40;99.90;;;;;;4952620;28;20299;-53
2021/08/11 02:08:25;;;;;;;4.53;4.13;;;18.40;99.90;;;;;;4953360;28;20255;-53
2021/08/11 02:10:55;;;;;;;8.10;4.28;;;18.40;99.90;;;;;;4952234;28;20200;-52
2021/08/11 02:13:21;;;;;;;5.93;4.63;;;18.30;99.90;;;;;;4952612;28;20708;-52
2021/08/11 02:15:48;;;;;;;6.70;6.05;;;18.30;99.90;;;;;;4952100;28;20220;-53
2021/08/11 02:18:14;;;;;;;8.07;5.25;;;18.30;99.90;;;;;;4944764;28;20857;-53
2021/08/11 02:20:40;;;;;;;9.10;8.17;;;18.30;99.90;;;;;;4952274;28;20192;-53
2021/08/11 02:23:05;;;;;;;7.03;5.53;;;18.30;99.90;;;;;;4952159;28;20222;-53
2021/08/11 02:25:33;;;;;;;9.30;5.33;;;18.30;99.90;;;;;;4951644;28;20232;-53
2021/08/11 02:28:25;;;;;;;5.70;4.22;;;18.20;99.90;;;;;;4952223;28;20185;-53
2021/08/11 02:30:57;;;;;;;4.32;3.53;;;18.30;99.90;;;;;;4947179;28;20228;-53
2021/08/11 02:33:32;;;;;;;5.18;4.28;;;17.90;99.90;;;;;;4948511;29;20690;-52
2021/08/11 02:36:06;;;;;;;4.18;3.80;;;18.10;99.90;;;;;;4951850;29;20208;-53
2021/08/11 02:38:38;;;;;;;4.55;4.10;;;17.90;99.90;;;;;;4951429;29;20721;-53
2021/08/11 02:41:18;;;;;;;4.00;3.70;;;18.10;99.90;;;;;;4950926;28;20181;-53
2021/08/11 02:44:04;;;;;;;4.28;3.90;;;18.00;99.90;;;;;;4953889;28;20279;-52
2021/08/11 02:46:33;;;;;;;6.00;3.97;;;18.10;99.90;;;;;;4953911;28;20303;-52
2021/08/11 02:49:01;;;;;;;5.03;4.38;;;18.00;99.90;;;;;;4957645;28;20228;-53
2021/08/11 02:51:30;;;;;;;4.68;4.20;;;17.90;99.90;;;;;;4955969;28;20184;-53
2021/08/11 02:54:00;;;;;;;4.85;4.22;;;17.90;99.90;;;;;;4956094;28;20219;-53
2021/08/11 02:56:27;;;;;;;6.97;4.10;;;17.80;99.90;;;;;;4955141;28;20213;-52
2021/08/11 02:58:54;;;;;;;5.35;4.30;;;17.90;99.90;;;;;;4955326;28;20188;-53
2021/08/11 03:01:20;;;;;;;5.95;4.30;;;17.80;99.90;;;;;;4955559;28;20632;-53
2021/08/11 03:03:46;;;;;;;5.80;4.55;;;18.00;99.90;;;;;;4955125;28;20532;-52
2021/08/11 03:06:12;;;;;;;6.40;4.63;;;17.90;99.90;;;;;;4946074;29;20216;-52
2021/08/11 03:08:39;;;;;;;7.47;5.00;;;17.90;99.90;;;;;;4955548;28;20200;-52
2021/08/11 03:11:08;;;;;;;7.63;4.32;;;17.80;99.90;;;;;;4955088;28;20259;-53
2021/08/11 03:13:37;;;;;;;5.70;4.25;;;17.60;99.90;;;;;;4955460;28;20248;-53
2021/08/11 03:16:03;;;;;;;5.28;4.78;;;17.70;99.90;;;;;;4955112;28;20324;-53
2021/08/11 03:18:33;;;;;;;5.40;4.90;;;18.00;99.90;;;;;;4953843;28;20189;-53
2021/08/11 03:20:58;;;;;;;4.95;4.45;;;17.90;99.90;;;;;;4955276;28;20275;-53
2021/08/11 03:23:24;;;;;;;6.30;4.93;;;17.80;99.90;;;;;;4955392;28;20216;-53
2021/08/11 03:25:49;;;;;;;4.63;4.23;;;17.70;99.90;;;;;;4955028;28;20212;-53
2021/08/11 03:28:15;;;;;;;5.17;4.67;;;17.60;99.90;;;;;;4955027;28;20192;-52
2021/08/11 03:30:42;;;;;;;6.07;4.70;;;17.60;99.90;;;;;;4955193;28;20255;-52
2021/08/11 03:33:08;;;;;;;7.70;4.80;;;17.50;99.90;;;;;;4955082;28;20213;-53
2021/08/11 03:35:34;;;;;;;6.28;4.22;;;17.60;99.90;;;;;;4952074;28;20212;-54
2021/08/11 03:38:00;;;;;;;4.77;4.27;;;17.30;99.90;;;;;;4954040;28;20185;-52
2021/08/11 03:40:26;;;;;;;5.33;4.60;;;17.40;99.90;;;;;;4953967;28;20448;-53
2021/08/11 03:42:52;;;;;;;4.95;4.45;;;17.30;99.90;;;;;;4954232;28;20459;-52
2021/08/11 03:45:18;;;;;;;6.15;4.93;;;17.50;99.90;;;;;;4955049;28;20236;-52
2021/08/11 03:47:44;;;;;;;6.87;4.83;;;17.20;99.90;;;;;;4954717;28;20553;-53
2021/08/11 03:50:14;;;;;;;5.88;4.55;;;17.20;99.90;;;;;;4955038;28;20212;-53
2021/08/11 03:52:41;;;;;;;5.70;5.20;;;17.30;99.90;;;;;;4954412;28;20208;-52
2021/08/11 03:55:08;;;;;;;4.63;4.22;;;17.30;99.90;;;;;;4947024;28;20215;-52
2021/08/11 03:57:33;;;;;;;6.18;4.85;;;17.20;99.90;;;;;;4954162;28;20204;-52
2021/08/11 03:59:59;;;;;;;5.73;5.17;;;17.20;99.90;;;;;;4953787;28;20189;-52
2021/08/11 04:02:25;;;;;;;5.50;4.93;;;17.20;99.90;;;;;;4954229;28;20276;-52
2021/08/11 04:04:50;;;;;;;8.57;4.90;;;17.30;99.90;;;;;;4954582;28;20297;-54
2021/08/11 04:07:16;;;;;;;7.27;5.70;;;17.30;99.90;;;;;;4954506;28;20205;-53
2021/08/11 04:09:42;;;;;;;5.47;4.97;;;17.50;99.90;;;;;;4952716;28;20189;-52
2021/08/11 04:12:08;;;;;;;5.80;5.27;;;17.50;99.90;;;;;;4954059;28;20205;-52
2021/08/11 04:14:33;;;;;;;5.67;5.07;;;17.30;99.90;;;;;;4954290;28;20232;-53
2021/08/11 04:16:59;;;;;;;5.80;5.23;;;17.40;99.90;;;;;;4949985;28;20561;-52
2021/08/11 04:19:25;;;;;;;5.53;5.00;;;17.40;99.90;;;;;;4946957;28;20184;-53
2021/08/11 04:21:51;;;;;;;5.30;4.73;;;17.40;99.90;;;;;;4953654;28;20448;-53
2021/08/11 04:24:16;;;;;;;8.93;5.30;;;17.40;99.90;;;;;;4954313;28;20587;-51
2021/08/11 04:26:42;;;;;;;6.80;4.70;;;17.30;99.90;;;;;;4952352;28;20208;-52
2021/08/11 04:29:07;;;;;;;8.50;5.33;;;17.30;99.90;;;;;;4953802;28;20220;-52
2021/08/11 04:31:33;;;;;;;5.70;5.10;;;17.20;99.90;;;;;;4949533;29;20256;-52
2021/08/11 04:33:59;;;;;;;6.43;5.70;;;17.00;99.90;;;;;;4953455;28;20674;-52
2021/08/11 04:36:24;;;;;;;6.70;5.20;;;17.10;99.90;;;;;;4953665;29;20466;-54
2021/08/11 04:38:50;;;;;;;6.60;4.67;;;17.40;99.90;;;;;;4952051;28;20255;-53
2021/08/11 04:41:17;;;;;;;8.17;5.90;;;17.40;99.90;;;;;;4952358;28;20679;-52
2021/08/11 04:43:42;;;;;;;5.28;4.82;;;17.40;99.90;;;;;;4953976;28;20412;-52
2021/08/11 04:46:08;;;;;;;7.03;4.70;;;17.40;99.90;;;;;;4954231;28;20574;-53
2021/08/11 04:48:34;;;;;;;6.00;5.37;;;17.30;99.90;;;;;;4957630;28;20227;-54
2021/08/11 04:51:00;;;;;;;5.30;4.80;;;17.40;99.90;;;;;;4953966;28;20491;-54
2021/08/11 04:53:25;;;;;;;5.30;4.80;;;17.30;99.90;;;;;;4953899;28;20291;-53
2021/08/11 04:55:51;;;;;;;5.30;4.80;;;17.30;99.90;;;;;;4952440;28;20231;-53
2021/08/11 04:58:17;;;;;;;5.87;5.20;;;17.40;99.90;;;;;;4952101;28;20193;-54
2021/08/11 05:00:43;;;;;;;6.22;5.63;;;17.40;99.90;;;;;;4954695;28;20283;-55
2021/08/11 05:03:09;;;;;;;5.60;4.97;;;17.60;99.90;;;;;;4953414;28;20718;-55
2021/08/11 05:05:35;;;;;;;5.40;4.97;;;17.50;99.90;;;;;;4952065;28;20805;-54
2021/08/11 05:08:01;;;;;;;5.30;4.45;;;17.50;99.90;;;;;;4958551;28;20189;-54
2021/08/11 05:10:27;;;;;;;6.23;4.80;;;17.60;99.90;;;;;;4951447;28;20681;-54
2021/08/11 05:12:52;;;;;;;6.30;5.50;;;17.50;99.90;;;;;;4953016;28;20209;-53
2021/08/11 05:15:18;;;;;;;6.87;4.77;;;17.50;99.90;;;;;;4953430;28;20247;-53
2021/08/11 05:17:44;;;;;;;5.83;5.33;;;17.60;99.90;;;;;;4952620;28;20264;-54
2021/08/11 05:20:12;;;;;;;5.33;4.60;;;17.50;99.90;;;;;;4960623;28;20247;-55
2021/08/11 05:22:38;;;;;;;6.93;5.35;;;17.80;99.90;;;;;;4953334;28;20487;-54
2021/08/11 05:25:04;;;;;;;6.67;4.90;;;17.80;99.90;;;;;;4951437;28;20189;-54
2021/08/11 05:27:30;;;;;;;8.20;6.30;;;17.90;99.90;;;;;;4949845;29;20220;-59
2021/08/11 05:29:56;;;;;;;6.80;5.60;;;17.70;99.90;;;;;;4952832;28;20211;-58
2021/08/11 05:32:22;;;;;;;5.88;5.25;;;18.20;99.90;;;;;;4953108;28;20208;-59
2021/08/11 05:34:48;;;;;;;7.00;5.77;;;18.10;99.90;;;;;;4947786;28;20186;-60
2021/08/11 05:37:13;;;;;;;5.87;5.27;;;17.80;99.90;;;;;;4949469;29;20243;-60
2021/08/11 05:39:40;;;;;;;7.67;5.30;;;17.70;99.90;;;;;;4951826;28;20471;-59
2021/08/11 05:42:06;;;;;;;5.50;5.00;;;18.10;99.90;;;;;;4951995;28;20244;-59
2021/08/11 05:44:34;;;;;;;5.85;5.35;;;18.00;99.90;;;;;;4949368;28;20217;-53
2021/08/11 05:47:03;;;;;;;7.82;4.53;;;18.20;99.90;;;;;;4948752;28;20300;-54
2021/08/11 05:49:30;;;;;;;5.60;5.10;;;18.00;99.90;;;;;;4950864;28;20185;-54
2021/08/11 05:51:56;;;;;;;7.55;5.22;;;18.40;99.90;;;;;;4951202;28;20291;-54
2021/08/11 05:54:22;;;;;;;5.65;5.15;;;18.50;99.90;;;;;;4950517;28;20817;-54
2021/08/11 05:56:48;;;;;;;7.60;5.73;;;18.60;99.90;;;;;;4945834;29;20212;-54
2021/08/11 05:59:14;;;;;;;6.13;5.30;;;18.70;99.90;;;;;;4951644;28;20235;-54
2021/08/11 06:01:39;;;;;;;6.33;5.73;;;18.90;99.90;;;;;;4952120;28;20181;-57
2021/08/11 06:04:05;;;;;;;7.43;5.20;;;19.20;99.90;;;;;;4950981;28;20620;-55
2021/08/11 06:06:31;;;;;;;11.20;6.00;;;19.20;99.90;;;;;;4952182;28;20211;-54
2021/08/11 06:08:57;;;;;;;7.20;5.50;;;19.40;99.90;;;;;;4952023;28;20267;-54
2021/08/11 06:11:22;;;;;;;6.20;5.50;;;19.50;99.90;;;;;;4952177;28;20472;-54
2021/08/11 06:13:48;;;;;;;6.83;5.50;;;19.60;99.90;;;;;;4951640;28;20209;-55
2021/08/11 06:16:14;;;;;;;7.17;5.03;;;19.70;99.90;;;;;;4950796;29;20214;-53
2021/08/11 06:18:39;;;;;;;6.47;5.30;;;19.80;99.90;;;;;;4951775;28;20216;-53
2021/08/11 06:21:05;;;;;;;8.30;5.60;;;20.00;99.90;;;;;;4952242;28;20227;-53
2021/08/11 06:23:31;;;;;;;5.70;5.20;;;20.20;99.90;;;;;;4951778;28;20204;-53
2021/08/11 06:25:57;;;;;;;6.33;5.37;;;20.30;99.90;;;;;;4951928;28;20341;-54
2021/08/11 06:28:23;;;;;;;6.17;5.57;;;20.50;99.90;;;;;;4950441;28;20205;-54
2021/08/11 06:30:49;;;;;;;6.03;5.30;;;20.70;99.90;;;;;;4951279;28;20424;-52
2021/08/11 06:33:14;;;;;;;6.57;5.87;;;20.90;99.90;;;;;;4954241;28;21130;-53
2021/08/11 06:35:40;;;;;;;6.67;5.50;;;21.00;99.90;;;;;;4954404;28;20496;-53
2021/08/11 06:38:06;;;;;;;6.60;5.30;;;21.30;99.90;;;;;;4947676;28;20197;-54
2021/08/11 06:40:36;;;;;;;5.97;5.47;;;21.60;99.90;;;;;;4943781;29;20432;-54
2021/08/11 06:43:02;;;;;;;5.70;5.10;;;21.60;99.90;;;;;;4951699;28;20523;-54
2021/08/11 06:45:28;;;;;;;5.77;4.67;;;21.70;99.90;;;;;;4951623;28;20496;-54
2021/08/11 06:47:53;;;;;;;5.70;4.80;;;22.00;99.90;;;;;;4952715;28;20475;-55
2021/08/11 06:50:19;;;;;;;5.47;5.00;;;22.30;99.90;;;;;;4951152;28;20448;-54
2021/08/11 06:52:45;;;;;;;5.70;4.80;;;22.60;99.90;;;;;;4951594;28;20757;-53
2021/08/11 06:55:13;;;;;;;5.00;4.10;;;22.80;99.90;;;;;;4950748;28;20189;-54
2021/08/11 06:57:40;;;;;;;8.47;5.53;;;22.90;99.90;;;;;;4948579;29;20196;-54
2021/08/11 07:00:07;;;;;;;8.20;5.03;;;22.90;99.90;;;;;;4951473;28;20436;-54
2021/08/11 07:02:33;;;;;;;5.50;5.00;;;22.80;99.90;;;;;;4951824;28;20448;-54
2021/08/11 07:04:59;;;;;;;5.50;4.97;;;23.00;99.90;;;;;;4950506;28;20997;-54
2021/08/11 07:07:25;;;;;;;5.07;4.57;;;22.90;99.90;;;;;;4951022;28;20256;-53
2021/08/11 07:09:51;;;;;;;4.83;4.23;;;23.60;99.90;;;;;;4947895;28;20273;-54
2021/08/11 07:12:17;;;;;;;5.33;4.83;;;25.30;98.70;;;;;;4946396;28;20473;-56
2021/08/11 07:14:42;;;;;;;5.97;3.80;;;27.30;95.00;;;;;;4945401;29;20440;-55
2021/08/11 07:17:08;;;;;;;4.67;4.27;;;29.10;90.60;;;;;;4949494;28;20304;-55
2021/08/11 07:19:34;;;;;;;7.67;4.47;;;30.30;84.30;;;;;;4947374;28;20264;-56
2021/08/11 07:22:00;;;;;;;5.07;4.57;;;31.90;77.80;;;;;;4951174;28;20204;-55
2021/08/11 07:24:26;;;;;;;4.90;4.50;;;32.90;72.10;;;;;;4950096;28;20508;-53
2021/08/11 07:26:51;;;;;;;4.87;4.47;;;33.30;67.60;;;;;;4950272;28;20476;-54
2021/08/11 07:29:17;;;;;;;5.30;4.70;;;34.30;65.90;;;;;;4951852;28;20436;-54
2021/08/11 07:31:43;;;;;;;4.83;4.43;;;34.40;63.40;;;;;;4953943;28;20197;-56
2021/08/11 07:34:08;;;;;;;3.80;3.50;;;33.90;63.20;;;;;;4953445;28;20193;-54
2021/08/11 07:36:34;;;;;;;4.67;4.27;;;34.60;60.40;;;;;;4954430;29;20205;-55
2021/08/11 07:39:00;;;;;;;5.03;4.30;;;34.40;59.20;;;;;;4954220;28;20690;-53
2021/08/11 07:41:25;;;;;;;5.60;4.33;;;34.20;59.60;;;;;;4941607;28;20208;-56
2021/08/11 07:43:51;;;;;;;5.50;4.03;;;35.60;57.60;;;;;;4954436;29;20200;-55
2021/08/11 07:46:17;;;;;;;5.30;3.50;;;36.20;55.20;;;;;;4954852;28;20690;-55
2021/08/11 07:48:42;;;;;;;4.57;3.80;;;36.10;54.70;;;;;;4956347;28;20193;-54
2021/08/11 07:51:08;;;;;;;3.90;3.60;;;36.10;53.40;;;;;;4954089;28;20658;-55
2021/08/11 07:53:34;;;;;;;4.37;3.97;;;35.60;54.20;;;;;;4953412;28;20657;-55
2021/08/11 07:55:59;;;;;;;4.10;3.80;;;35.70;54.60;;;;;;4953579;28;20232;-54
2021/08/11 07:58:25;;;;;;;4.33;3.93;;;36.30;53.90;;;;;;4944552;29;20192;-56
2021/08/11 08:00:52;;;;;;;3.97;3.67;;;36.90;52.50;;;;;;4954364;28;20181;-54
2021/08/11 08:03:18;;;;;;;4.63;3.87;;;37.30;51.40;;;;;;4954700;28;20189;-53
2021/08/11 08:05:44;;;;;;;5.47;4.97;;;35.20;53.80;;;;;;4935851;29;20479;-53
2021/08/11 08:08:09;;;;;;;5.20;4.70;;;35.30;53.90;;;;;;4954161;28;20308;-53
2021/08/11 08:10:36;;;;;;;4.40;4.00;;;34.40;55.20;;;;;;4953723;28;20204;-55
2021/08/11 08:13:01;;;;;;;4.27;3.97;;;35.30;54.90;;;;;;4954034;28;20669;-56
2021/08/11 08:15:28;;;;;;;4.40;4.00;;;36.90;52.30;;;;;;4954166;28;20491;-55
2021/08/11 08:17:54;;;;;;;4.10;3.80;;;37.40;50.30;;;;;;4954002;28;20211;-56
2021/08/11 08:20:20;;;;;;;4.10;3.70;;;37.90;49.70;;;;;;4948167;28;20822;-57
2021/08/11 08:22:47;;;;;;;4.93;4.10;;;38.40;48.40;;;;;;4953943;28;20208;-54
2021/08/11 08:25:13;;;;;;;4.13;3.83;;;37.80;48.70;;;;;;4953029;28;20532;-53
2021/08/11 08:27:40;;;;;;;4.00;3.70;;;38.00;48.30;;;;;;4950767;28;20449;-53
2021/08/11 08:30:08;;;;;;;4.70;4.30;;;37.90;48.50;;;;;;4953120;28;20535;-55
2021/08/11 08:32:34;;;;;;;5.03;4.47;;;37.70;48.70;;;;;;4953121;28;20483;-54
2021/08/11 08:34:59;;;;;;;4.20;3.90;;;38.10;48.40;;;;;;4953644;28;20547;-53
2021/08/11 08:37:33;;;;;;;3.97;3.67;;;37.40;48.20;;;;;;4952147;28;20637;-53
2021/08/11 08:40:05;;;;;;;3.93;3.60;;;37.90;48.40;;;;;;4952326;28;20211;-55
2021/08/11 08:42:31;;;;;;;5.20;4.70;;;37.70;48.20;;;;;;4952603;28;20471;-55
2021/08/11 08:44:57;;;;;;;4.00;3.70;;;37.20;49.60;;;;;;4953752;28;20866;-55
2021/08/11 08:47:24;;;;;;;4.70;4.30;;;38.10;48.80;;;;;;4953123;28;20459;-54
2021/08/11 08:49:50;;;;;;;4.60;4.20;;;37.90;48.30;;;;;;4949949;28;20220;-56
2021/08/11 08:52:20;;;;;;;4.50;4.20;;;38.50;47.30;;;;;;4952721;28;21016;-59
2021/08/11 08:54:47;;;;;;;4.80;4.37;;;38.50;47.50;;;;;;4967128;28;20448;-58
2021/08/11 08:57:14;;;;;;;4.00;3.70;;;38.80;46.70;;;;;;4952741;28;20459;-56
2021/08/11 08:59:44;;;;;;;4.13;3.83;;;38.50;46.20;;;;;;4952894;28;20449;-55
2021/08/11 09:02:14;;;;;;;4.63;4.20;;;37.40;48.50;;;;;;4952965;28;20444;-55
2021/08/11 09:04:40;;;;;;;5.60;4.07;;;38.40;46.60;;;;;;4941637;29;20480;-56
2021/08/11 09:07:07;;;;;;;6.90;6.50;;;37.80;46.50;;;;;;4952966;28;20468;-55
2021/08/11 09:09:38;;;;;;;4.70;4.30;;;37.60;47.70;;;;;;4952404;28;20455;-55
2021/08/11 09:12:14;;;;;;;6.77;4.23;;;37.80;47.30;;;;;;4953204;29;20566;-55
2021/08/11 09:14:45;;;;;;;4.67;4.27;;;37.70;47.20;;;;;;4953224;28;20932;-55
2021/08/11 09:17:13;;;;;;;3.90;3.60;;;37.70;48.30;;;;;;4952536;28;20551;-56
2021/08/11 09:19:45;;;;;;;9.10;4.87;;;38.00;47.90;;;;;;4949331;28;20441;-56
2021/08/11 09:22:16;;;;;;;4.50;4.10;;;38.60;46.10;;;;;;4952426;28;21017;-56
2021/08/11 09:24:42;;;;;;;4.63;4.22;;;38.80;46.20;;;;;;4950646;28;20449;-55
2021/08/11 09:27:24;;;;;;;4.00;3.70;;;39.10;45.50;;;;;;4952198;28;20586;-57
2021/08/11 09:30:10;;;;;;;4.33;4.00;;;38.70;45.10;;;;;;4950776;28;20440;-55
2021/08/11 09:33:03;;;;;;;4.73;3.87;;;38.80;45.00;;;;;;4951790;28;20989;-55
2021/08/11 09:35:40;;;;;;;4.17;3.87;;;38.60;44.00;;;;;;4950724;28;20992;-55
2021/08/11 09:38:10;;;;;;;3.90;3.60;;;38.10;45.50;;;;;;4947672;28;20447;-56
2021/08/11 09:40:38;;;;;;;6.20;4.60;;;37.70;45.30;;;;;;4948935;29;20556;-56
2021/08/11 09:43:06;;;;;;;4.27;3.87;;;37.00;47.10;;;;;;4943100;29;20452;-56
2021/08/11 09:45:50;;;;;;;3.80;3.47;;;35.60;48.50;;;;;;4952289;28;20463;-55
2021/08/11 09:48:21;;;;;;;4.40;4.07;;;34.70;50.60;;;;;;4950923;28;20969;-56
2021/08/11 09:51:10;;;;;;;5.70;3.70;;;34.40;51.80;;;;;;4952144;29;20433;-54
2021/08/11 09:53:38;;;;;;;3.87;3.57;;;34.30;51.50;;;;;;4951703;28;20468;-55
2021/08/11 09:56:06;;;;;;;5.40;4.00;;;34.10;52.20;;;;;;4952086;28;20947;-56
2021/08/11 09:58:36;;;;;;;4.20;3.87;;;33.40;53.10;;;;;;4951533;28;20519;-55
2021/08/11 10:01:03;;;;;;;4.50;3.87;;;33.40;54.20;;;;;;4952247;28;20432;-54
2021/08/11 10:03:29;;;;;;;4.23;3.83;;;34.80;52.50;;;;;;4951663;28;20576;-55
2021/08/11 10:05:56;;;;;;;3.93;3.63;;;35.20;51.30;;;;;;4951833;28;20551;-54
2021/08/11 10:08:33;;;;;;;4.77;4.37;;;35.60;50.20;;;;;;4951220;28;20184;-54
2021/08/11 10:10:59;;;;;;;4.13;3.60;;;35.20;50.60;;;;;;4951377;28;20451;-55
2021/08/11 10:13:27;;;;;;;5.00;3.87;;;34.60;51.70;;;;;;4944136;28;20472;-54
2021/08/11 10:15:53;;;;;;;4.23;3.90;;;33.80;53.00;;;;;;4950014;29;20815;-54
2021/08/11 10:18:26;;;;;;;6.17;4.20;;;33.00;54.10;;;;;;4951485;28;20450;-54
2021/08/11 10:20:56;;;;;;;5.20;4.30;;;32.20;55.90;;;;;;4951818;28;20435;-56
2021/08/11 10:23:22;;;;;;;4.63;4.33;;;31.70;56.40;;;;;;4950930;28;20442;-53
2021/08/11 10:25:49;;;;;;;7.17;4.40;;;31.30;57.80;;;;;;4946870;28;20464;-54
2021/08/11 10:28:23;;;;;;;6.30;4.23;;;31.10;58.40;;;;;;4948913;28;20809;-53
2021/08/11 10:30:50;;;;;;;4.70;4.20;;;30.60;59.70;;;;;;4951184;28;20831;-58
2021/08/11 10:33:16;;;;;;;4.70;4.30;;;30.40;60.50;;;;;;4951694;28;20575;-57
2021/08/11 10:35:47;;;;;;;3.93;3.63;;;30.10;61.70;;;;;;4949695;28;20590;-57
2021/08/11 10:38:14;;;;;;;4.63;4.07;;;29.70;63.30;;;;;;4951531;28;20514;-54
2021/08/11 10:40:50;;;;;;;5.40;4.50;;;29.60;63.60;;;;;;4950513;28;20866;-54
2021/08/11 10:43:16;;;;;;;4.10;3.80;;;29.70;63.10;;;;;;4952027;29;20436;-54
2021/08/11 10:45:44;;;;;;;4.47;4.17;;;29.50;64.60;;;;;;4950625;28;20449;-54
2021/08/11 10:48:16;;;;;;;5.90;4.87;;;29.40;64.80;;;;;;4953020;28;20446;-54
2021/08/11 10:50:45;;;;;;;4.80;4.47;;;29.20;65.20;;;;;;4951255;28;20444;-54
2021/08/11 10:53:12;;;;;;;5.10;4.43;;;28.80;66.30;;;;;;4951761;28;20841;-55
2021/08/11 10:55:47;;;;;;;6.07;4.63;;;28.70;68.60;;;;;;4947183;28;21004;-55
2021/08/11 10:58:40;;;;;;;6.30;5.13;;;28.60;69.20;;;;;;4950328;28;20440;-54
2021/08/11 11:01:33;;;;;;;5.13;4.57;;;28.40;70.70;;;;;;4949220;28;20863;-55
2021/08/11 11:04:00;;;;;;;6.03;5.50;;;28.30;71.70;;;;;;4951427;28;20444;-55
2021/08/11 11:06:51;;;;;;;8.80;5.43;;;28.50;72.40;;;;;;4950402;28;20464;-55
2021/08/11 11:09:22;;;;;;;5.33;4.70;;;28.60;70.50;;;;;;4951452;29;20440;-54
2021/08/11 11:11:47;;;;;;;4.33;4.00;;;28.40;69.70;;;;;;4954920;29;20445;-53
2021/08/11 11:14:47;;;;;;;5.00;4.60;;;28.60;68.80;;;;;;4955613;28;20432;-54
2021/08/11 11:17:14;;;;;;;5.07;4.67;;;28.60;69.00;;;;;;4943866;29;20237;-52
2021/08/11 11:22:42;;;;;;;5.00;4.60;;;29.10;67.70;;;;;;4954909;28;20434;-55
2021/08/11 11:25:10;;;;;;;4.57;4.17;;;29.10;68.00;;;;;;4948761;28;20966;-54
2021/08/11 11:27:39;;;;;;;5.83;4.33;;;29.20;67.10;;;;;;4951476;29;20486;-55
2021/08/11 11:30:31;;;;;;;4.20;3.70;;;29.20;66.10;;;;;;4955311;28;20859;-56
2021/08/11 11:33:28;;;;;;;4.37;4.07;;;29.30;65.70;;;;;;4954880;28;20470;-56
2021/08/11 11:36:19;;;;;;;4.83;4.43;;;29.50;64.70;;;;;;4954313;28;20470;-54
2021/08/11 11:39:07;;;;;;;5.20;4.60;;;30.30;63.80;;;;;;4954663;28;20440;-53
2021/08/11 11:41:34;;;;;;;4.87;4.37;;;30.70;62.30;;;;;;4952673;28;20791;-53
2021/08/11 11:44:41;;;;;;;4.70;4.13;;;30.90;62.00;;;;;;4953080;28;20444;-54
2021/08/11 11:47:11;;;;;;;4.57;4.10;;;30.80;63.10;;;;;;4921145;28;20454;-54
2021/08/11 11:49:37;;;;;;;4.50;4.10;;;30.70;64.90;;;;;;4953744;28;20471;-54
2021/08/11 11:52:04;;;;;;;7.60;5.00;;;30.00;65.90;;;;;;4954835;28;20464;-55
2021/08/11 11:54:32;;;;;;;5.00;4.50;;;29.60;67.50;;;;;;4953964;28;20434;-55
2021/08/11 11:56:59;;;;;;;6.10;4.83;;;29.40;68.50;;;;;;4954143;28;20458;-53
2021/08/11 11:59:26;;;;;;;5.93;5.33;;;29.40;68.40;;;;;;4954167;28;20460;-54
2021/08/11 12:01:54;;;;;;;5.23;3.97;;;29.50;69.10;;;;;;4954399;28;20474;-55
2021/08/11 12:04:26;;;;;;;7.53;4.90;;;29.90;67.30;;;;;;4953182;28;20441;-56
2021/08/11 12:06:52;;;;;;;5.67;5.10;;;30.10;65.60;;;;;;4954461;28;20466;-55
2021/08/11 12:09:18;;;;;;;4.80;4.40;;;29.90;66.40;;;;;;4954657;28;20507;-55
2021/08/11 12:11:43;;;;;;;11.23;4.67;;;29.70;66.50;;;;;;4953509;28;20225;-54
2021/08/11 12:14:09;;;;;;;4.70;4.30;;;29.80;67.10;;;;;;4953853;28;20442;-54
2021/08/11 12:16:40;;;;;;;4.73;4.30;;;29.80;66.70;;;;;;4954115;28;20227;-54
2021/08/11 12:19:19;;;;;;;5.20;4.80;;;29.40;68.00;;;;;;4953181;28;20219;-54
2021/08/11 12:21:48;;;;;;;5.13;4.63;;;29.10;68.20;;;;;;4953276;29;20967;-55
2021/08/11 12:24:14;;;;;;;5.10;4.60;;;29.00;69.10;;;;;;4954592;28;20446;-55
2021/08/11 12:26:40;;;;;;;6.60;4.93;;;29.00;70.20;;;;;;4949325;28;20565;-54
2021/08/11 12:29:17;;;;;;;6.10;4.47;;;29.10;70.40;;;;;;4953806;28;21011;-54
2021/08/11 12:31:43;;;;;;;4.97;4.57;;;29.30;70.10;;;;;;4953362;28;20263;-54
2021/08/11 12:34:10;;;;;;;6.53;4.67;;;29.30;70.00;;;;;;4953123;28;20451;-55
2021/08/11 12:36:38;;;;;;;5.37;4.87;;;29.20;70.30;;;;;;4953544;28;20517;-54
2021/08/11 12:39:14;;;;;;;4.67;4.27;;;29.20;70.60;;;;;;4953481;28;20814;-53
2021/08/11 12:41:47;;;;;;;6.03;5.00;;;29.30;69.90;;;;;;4951399;28;20464;-55
2021/08/11 12:44:22;;;;;;;4.87;4.47;;;29.30;69.70;;;;;;4953712;28;20432;-53
2021/08/11 12:46:49;;;;;;;5.87;4.93;;;29.20;70.20;;;;;;4955333;28;20469;-54
2021/08/11 12:49:49;;;;;;;4.73;4.33;;;29.30;70.20;;;;;;4950409;29;20461;-54
2021/08/11 12:55:00;;;;;;;5.23;4.13;;;29.30;70.30;;;;;;4950308;28;20529;-55
2021/08/11 12:57:42;;;;;;;4.87;4.37;;;29.30;70.60;;;;;;4953544;28;20963;-55
2021/08/11 13:00:10;;;;;;;4.73;4.33;;;29.40;70.90;;;;;;4952062;29;20446;-54
2021/08/11 13:02:36;;;;;;;4.80;4.40;;;29.20;70.50;;;;;;4950199;29;21023;-54